Time;durP1;ratioP1;P1;durP2;ratioP2;P2;SDS_P1;SDS_P2;PMS_P1;PMS_P2;Temp;Humidity;BMP_temperature;BMP_pressure;BME280_temperature;BME280_humidity;BME280_pressure;Samples;Min_cycle;Max_cycle;Signal;HPM_P1;HPM_P2
2022/11/16 00:01:04;;;;;;;10.10;7.55;;;10.70;99.90;;;;;;5115057;28;20124;-64
2022/11/16 00:03:30;;;;;;;8.82;7.80;;;10.80;99.90;;;;;;5115678;28;20044;-64
2022/11/16 00:05:57;;;;;;;9.50;7.88;;;10.60;99.90;;;;;;5115224;28;20565;-64
2022/11/16 00:08:23;;;;;;;10.88;7.78;;;10.60;99.90;;;;;;5115372;28;20042;-64
2022/11/16 00:10:49;;;;;;;12.85;8.25;;;10.70;99.90;;;;;;5115192;28;20110;-64
2022/11/16 00:13:15;;;;;;;11.43;8.13;;;10.80;99.90;;;;;;5115300;28;20040;-64
2022/11/16 00:15:40;;;;;;;9.73;8.30;;;10.60;99.90;;;;;;5115270;28;20046;-64
2022/11/16 00:18:06;;;;;;;10.65;7.60;;;10.70;99.90;;;;;;5114948;28;20039;-64
2022/11/16 00:20:32;;;;;;;11.20;8.57;;;10.70;99.90;;;;;;5115042;28;20089;-65
2022/11/16 00:22:57;;;;;;;10.35;7.72;;;10.60;99.90;;;;;;5114997;28;20071;-64
2022/11/16 00:25:23;;;;;;;10.32;8.38;;;10.80;99.90;;;;;;5114718;28;20062;-65
2022/11/16 00:27:48;;;;;;;10.75;8.88;;;10.60;99.90;;;;;;5115067;28;20050;-64
2022/11/16 00:30:14;;;;;;;11.60;9.27;;;10.60;99.90;;;;;;5114967;28;20039;-65
2022/11/16 00:32:40;;;;;;;13.52;9.30;;;10.70;99.90;;;;;;5114940;28;20043;-65
2022/11/16 00:35:06;;;;;;;14.45;10.00;;;10.60;99.90;;;;;;5114647;28;20047;-63
2022/11/16 00:37:32;;;;;;;17.02;9.70;;;10.70;99.90;;;;;;5114192;28;20052;-64
2022/11/16 00:39:57;;;;;;;11.85;9.73;;;10.60;99.90;;;;;;5114921;28;20376;-65
2022/11/16 00:42:23;;;;;;;11.27;10.07;;;10.70;99.90;;;;;;5114817;28;20404;-64
2022/11/16 00:44:48;;;;;;;12.60;9.68;;;10.50;99.90;;;;;;5095689;28;20048;-64
2022/11/16 00:47:14;;;;;;;11.40;9.25;;;10.70;99.90;;;;;;5114131;28;20050;-64
2022/11/16 00:49:39;;;;;;;14.82;10.13;;;10.70;99.90;;;;;;5114455;28;20040;-64
2022/11/16 00:52:05;;;;;;;11.75;10.15;;;10.70;99.90;;;;;;5114625;28;20039;-64
2022/11/16 00:54:31;;;;;;;11.00;9.45;;;10.70;99.90;;;;;;5114162;28;20371;-64
2022/11/16 00:56:56;;;;;;;10.98;9.75;;;10.70;99.90;;;;;;5114207;28;20032;-64
2022/11/16 00:59:22;;;;;;;14.25;10.30;;;10.50;99.90;;;;;;5113639;28;20032;-64
2022/11/16 01:01:47;;;;;;;16.27;10.63;;;10.60;99.90;;;;;;5114034;28;20439;-64
2022/11/16 01:04:13;;;;;;;14.27;10.30;;;10.50;99.90;;;;;;5114140;28;20031;-64
2022/11/16 01:06:38;;;;;;;14.02;10.40;;;10.50;99.90;;;;;;5113892;28;20374;-65
2022/11/16 01:09:04;;;;;;;12.43;10.57;;;10.60;99.90;;;;;;5113966;28;20048;-65
2022/11/16 01:14:14;;;;;;;13.88;11.10;;;10.70;99.90;;;;;;5113883;28;20047;-64
2022/11/16 01:16:39;;;;;;;12.48;10.35;;;10.50;99.90;;;;;;5114205;28;20048;-64
2022/11/16 01:19:06;;;;;;;15.27;11.23;;;10.70;99.90;;;;;;5113584;28;20035;-64
2022/11/16 01:21:32;;;;;;;14.73;10.70;;;10.50;99.90;;;;;;5113960;28;20067;-64
2022/11/16 01:23:58;;;;;;;14.68;10.73;;;10.70;99.90;;;;;;5113964;28;20031;-64
2022/11/16 01:26:24;;;;;;;13.02;10.88;;;10.60;99.90;;;;;;5113823;28;20431;-64
2022/11/16 01:28:50;;;;;;;13.13;11.02;;;10.60;99.90;;;;;;5113523;28;20050;-64
2022/11/16 01:31:15;;;;;;;13.35;10.40;;;10.60;99.90;;;;;;5113674;28;20043;-64
2022/11/16 01:33:41;;;;;;;13.40;9.95;;;10.60;99.90;;;;;;5113345;28;20401;-64
2022/11/16 01:36:13;;;;;;;12.45;10.35;;;10.60;99.90;;;;;;5113375;28;20116;-64
2022/11/16 01:38:41;;;;;;;12.82;10.70;;;10.70;99.90;;;;;;5113121;28;20039;-64
2022/11/16 01:41:06;;;;;;;17.90;11.15;;;10.60;99.90;;;;;;5113549;28;20423;-64
2022/11/16 01:43:54;;;;;;;12.93;10.43;;;10.60;99.90;;;;;;5113837;28;20040;-65
2022/11/16 01:46:21;;;;;;;13.20;10.30;;;10.80;99.90;;;;;;5113242;28;20535;-64
2022/11/16 01:48:49;;;;;;;11.70;9.60;;;10.60;99.90;;;;;;5113163;28;20047;-64
2022/11/16 01:51:15;;;;;;;14.27;10.48;;;10.70;99.90;;;;;;5113280;28;20040;-64
2022/11/16 01:53:41;;;;;;;12.00;10.10;;;10.60;99.90;;;;;;5113351;28;20042;-64
2022/11/16 01:56:07;;;;;;;14.75;10.35;;;10.70;99.90;;;;;;5112936;28;20470;-64
2022/11/16 01:58:34;;;;;;;14.45;10.23;;;10.70;99.90;;;;;;5112808;28;20031;-63
2022/11/16 02:00:59;;;;;;;10.70;9.27;;;10.70;99.90;;;;;;5112687;28;20031;-65
2022/11/16 02:03:25;;;;;;;13.25;9.57;;;10.70;99.90;;;;;;5113233;28;20068;-65
2022/11/16 02:06:12;;;;;;;13.80;10.95;;;10.70;99.90;;;;;;5113057;28;20134;-64
2022/11/16 02:11:35;;;;;;;12.50;10.02;;;10.70;99.90;;;;;;5117399;28;20393;-64
2022/11/16 02:14:24;;;;;;;11.45;9.52;;;10.70;99.90;;;;;;5117301;28;20040;-65
2022/11/16 02:17:17;;;;;;;13.17;9.50;;;10.60;99.90;;;;;;5081041;28;20047;-65
2022/11/16 02:20:21;;;;;;;13.55;9.68;;;10.80;99.90;;;;;;5100482;28;20047;-64
2022/11/16 02:22:53;;;;;;;14.00;8.95;;;10.70;99.90;;;;;;5014318;28;20488;-64
2022/11/16 02:25:37;;;;;;;12.30;8.98;;;10.80;99.90;;;;;;5014567;28;20599;-65
2022/11/16 02:28:09;;;;;;;11.20;8.50;;;10.70;99.90;;;;;;5014437;28;20050;-64
2022/11/16 02:30:36;;;;;;;13.18;8.82;;;10.90;99.90;;;;;;5014314;28;20523;-65
2022/11/16 02:33:10;;;;;;;11.70;9.02;;;10.80;99.90;;;;;;5014241;28;20122;-64
2022/11/16 02:35:44;;;;;;;12.80;9.68;;;10.80;99.90;;;;;;4997639;28;20397;-65
2022/11/16 02:38:19;;;;;;;11.23;8.50;;;10.70;99.90;;;;;;5014170;28;20041;-64
2022/11/16 02:40:48;;;;;;;11.63;8.48;;;10.90;99.90;;;;;;5014137;28;20153;-64
2022/11/16 02:43:27;;;;;;;14.98;8.82;;;10.70;99.90;;;;;;5014007;28;20048;-64
2022/11/16 02:45:56;;;;;;;13.18;8.98;;;10.90;99.90;;;;;;5013754;28;20415;-64
2022/11/16 02:48:26;;;;;;;11.90;7.93;;;10.70;99.90;;;;;;5014107;28;20452;-64
2022/11/16 02:50:52;;;;;;;9.93;7.85;;;10.80;99.90;;;;;;5013650;28;20038;-64
2022/11/16 02:53:23;;;;;;;12.10;8.65;;;10.70;99.90;;;;;;5013952;28;20514;-65
2022/11/16 02:55:49;;;;;;;10.60;8.30;;;10.70;99.90;;;;;;5013735;28;20117;-65
2022/11/16 02:58:23;;;;;;;17.48;9.13;;;10.70;99.90;;;;;;5013597;28;20151;-66
2022/11/16 03:01:06;;;;;;;12.57;8.40;;;10.80;99.90;;;;;;5109157;28;20051;-64
2022/11/16 03:04:04;;;;;;;11.38;8.23;;;10.70;99.90;;;;;;5116448;28;20043;-64
2022/11/16 03:06:34;;;;;;;13.55;7.88;;;10.80;99.90;;;;;;5013245;28;20054;-65
2022/11/16 03:09:11;;;;;;;13.85;8.73;;;10.80;99.90;;;;;;5013483;28;20144;-65
2022/11/16 03:12:00;;;;;;;11.73;8.13;;;10.70;99.90;;;;;;5013366;28;20125;-65
2022/11/16 03:14:49;;;;;;;10.55;8.48;;;10.90;99.90;;;;;;5013034;28;20049;-65
2022/11/16 03:17:39;;;;;;;12.63;9.32;;;10.70;99.90;;;;;;5013632;28;20108;-65
2022/11/16 03:20:21;;;;;;;11.27;8.88;;;10.80;99.90;;;;;;4935658;29;20439;-66
2022/11/16 03:22:51;;;;;;;9.98;7.78;;;10.70;99.90;;;;;;4935427;29;20071;-65
2022/11/16 03:25:19;;;;;;;11.00;8.57;;;10.80;99.90;;;;;;4936002;29;20074;-66
2022/11/16 03:27:47;;;;;;;11.55;8.23;;;10.80;99.90;;;;;;4936074;29;20462;-66
2022/11/16 03:30:18;;;;;;;10.88;8.45;;;10.90;99.90;;;;;;4919793;29;20040;-65
2022/11/16 03:33:02;;;;;;;10.93;8.38;;;10.70;99.90;;;;;;4935463;29;20099;-65
2022/11/16 03:35:37;;;;;;;11.77;8.68;;;10.70;99.90;;;;;;4935650;29;20076;-65
2022/11/16 03:38:05;;;;;;;9.85;8.10;;;10.90;99.90;;;;;;4935696;29;20060;-65
2022/11/16 03:40:33;;;;;;;13.20;9.30;;;10.70;99.90;;;;;;4935771;29;20114;-65
2022/11/16 03:43:01;;;;;;;11.55;8.35;;;10.80;99.90;;;;;;4963965;28;20658;-65
2022/11/16 03:45:28;;;;;;;13.77;8.57;;;10.70;99.90;;;;;;5032789;28;20124;-65
2022/11/16 03:47:54;;;;;;;13.23;9.13;;;10.80;99.90;;;;;;5016681;28;20156;-65
2022/11/16 03:50:20;;;;;;;13.15;8.63;;;10.90;99.90;;;;;;5032726;28;20495;-65
2022/11/16 03:52:45;;;;;;;15.80;9.25;;;10.90;99.90;;;;;;5032537;28;20049;-66
2022/11/16 03:55:11;;;;;;;13.25;9.20;;;10.70;99.90;;;;;;5032807;28;20076;-66
2022/11/16 03:57:37;;;;;;;10.38;8.15;;;10.70;99.90;;;;;;5092026;28;20096;-66
2022/11/16 04:00:04;;;;;;;12.10;8.63;;;10.70;99.90;;;;;;5115121;28;20044;-66
2022/11/16 04:02:29;;;;;;;15.77;9.27;;;10.90;99.90;;;;;;5115388;28;20043;-65
2022/11/16 04:24:24;;;;;;;14.95;10.35;;;10.90;99.90;;;;;;5115117;28;20048;-65
2022/11/16 04:29:41;;;;;;;12.10;10.23;;;10.60;99.90;;;;;;5115123;28;20043;-65
2022/11/16 04:37:51;;;;;;;15.13;10.50;;;10.80;99.90;;;;;;5114571;28;20032;-65
2022/11/16 04:40:22;;;;;;;14.52;9.85;;;10.90;99.90;;;;;;5114664;28;20530;-66
2022/11/16 04:43:00;;;;;;;11.45;10.20;;;10.60;99.90;;;;;;5114618;28;20046;-66
2022/11/16 04:48:12;;;;;;;11.48;9.65;;;10.80;99.90;;;;;;5114271;28;20447;-65
2022/11/16 04:50:38;;;;;;;12.93;10.05;;;10.80;99.90;;;;;;5114554;28;20027;-65
2022/11/16 04:53:05;;;;;;;10.85;9.35;;;10.70;99.90;;;;;;5114267;28;20075;-66
2022/11/16 04:55:31;;;;;;;11.30;9.18;;;10.80;99.90;;;;;;5114539;28;20027;-65
2022/11/16 04:57:57;;;;;;;15.65;10.85;;;10.80;99.90;;;;;;5114031;28;20127;-66
2022/11/16 05:00:23;;;;;;;14.57;10.40;;;10.90;99.90;;;;;;5114266;28;20110;-66
2022/11/16 05:02:49;;;;;;;14.00;10.60;;;10.60;99.90;;;;;;5114271;28;20038;-65
2022/11/16 05:05:15;;;;;;;13.63;10.68;;;10.80;99.90;;;;;;5113916;28;20473;-66
2022/11/16 05:07:40;;;;;;;14.52;10.63;;;10.70;99.90;;;;;;5114256;28;20473;-66
2022/11/16 05:10:07;;;;;;;18.92;10.88;;;10.80;99.90;;;;;;5113892;28;20556;-66
2022/11/16 05:12:33;;;;;;;14.68;10.82;;;10.90;99.90;;;;;;5095594;28;20046;-66
2022/11/16 05:14:59;;;;;;;13.85;11.57;;;10.70;99.90;;;;;;5095235;28;20048;-66
2022/11/16 05:17:25;;;;;;;15.27;11.10;;;10.80;99.90;;;;;;5113693;28;20144;-66
2022/11/16 05:22:36;;;;;;;13.43;11.00;;;10.60;99.90;;;;;;5114122;28;20040;-66
2022/11/16 05:25:03;;;;;;;13.13;10.77;;;10.70;99.90;;;;;;5113828;28;20095;-66
2022/11/16 05:27:29;;;;;;;13.90;11.27;;;10.60;99.90;;;;;;5114090;28;20502;-66
2022/11/16 05:29:55;;;;;;;16.45;11.57;;;10.70;99.90;;;;;;5113859;28;20118;-66
2022/11/16 05:32:22;;;;;;;17.02;11.73;;;10.70;99.90;;;;;;5113820;28;20388;-66
2022/11/16 05:34:48;;;;;;;17.08;11.52;;;10.60;99.90;;;;;;5113588;28;20040;-66
2022/11/16 05:37:16;;;;;;;16.65;11.55;;;10.80;99.90;;;;;;5113493;28;20122;-66
2022/11/16 05:39:42;;;;;;;16.48;11.80;;;10.70;99.90;;;;;;5114053;28;20085;-66
2022/11/16 05:42:07;;;;;;;15.25;11.73;;;10.60;99.90;;;;;;5112869;28;20534;-66
2022/11/16 05:44:33;;;;;;;16.52;12.13;;;10.60;99.90;;;;;;5110205;28;20035;-65
2022/11/16 05:46:59;;;;;;;15.15;12.18;;;10.80;99.90;;;;;;5112442;28;20083;-65
2022/11/16 05:49:25;;;;;;;12.98;11.07;;;10.60;99.90;;;;;;5113527;28;20036;-66
2022/11/16 05:51:51;;;;;;;15.30;12.13;;;10.80;99.90;;;;;;5095351;28;20436;-66
2022/11/16 05:54:19;;;;;;;13.68;11.27;;;10.60;99.90;;;;;;5113678;28;20039;-66
2022/11/16 05:56:47;;;;;;;15.85;12.50;;;10.70;99.90;;;;;;5113799;28;20035;-66
2022/11/16 05:59:14;;;;;;;16.52;12.02;;;10.60;99.90;;;;;;5095056;28;20044;-66
2022/11/16 06:01:40;;;;;;;15.38;11.70;;;10.60;99.90;;;;;;5113185;28;20035;-66
2022/11/16 06:04:05;;;;;;;14.07;11.30;;;10.60;99.90;;;;;;5113793;28;20090;-66
2022/11/16 06:06:32;;;;;;;13.90;11.07;;;10.80;99.90;;;;;;5091113;28;20080;-66
2022/11/16 06:08:58;;;;;;;17.88;12.38;;;10.60;99.90;;;;;;5092775;28;20068;-65
2022/11/16 06:11:24;;;;;;;15.77;11.77;;;10.80;99.90;;;;;;5092767;28;20052;-65
2022/11/16 06:13:49;;;;;;;14.90;11.75;;;10.60;99.90;;;;;;5091007;28;20052;-65
2022/11/16 06:16:16;;;;;;;14.43;11.60;;;10.80;99.90;;;;;;5093135;28;20040;-65
2022/11/16 06:18:44;;;;;;;15.93;11.77;;;10.60;99.90;;;;;;5093118;28;20036;-66
2022/11/16 06:21:12;;;;;;;17.85;12.82;;;10.60;99.90;;;;;;5091588;28;20576;-65
2022/11/16 06:23:37;;;;;;;16.50;12.32;;;10.80;99.90;;;;;;5092753;28;20502;-65
2022/11/16 06:26:04;;;;;;;13.55;12.05;;;10.80;99.90;;;;;;5092641;28;20040;-65
2022/11/16 06:28:30;;;;;;;16.13;11.90;;;10.80;99.90;;;;;;5092932;28;20082;-65
2022/11/16 06:30:56;;;;;;;15.55;11.82;;;10.80;99.90;;;;;;5092648;28;20075;-65
2022/11/16 06:33:22;;;;;;;15.50;12.02;;;10.90;99.90;;;;;;5092824;28;20052;-65
2022/11/16 06:35:47;;;;;;;16.00;12.32;;;10.70;99.90;;;;;;5092529;28;20093;-65
2022/11/16 06:38:17;;;;;;;13.25;11.68;;;10.70;99.90;;;;;;5092703;28;20044;-65
2022/11/16 06:40:54;;;;;;;16.30;13.02;;;10.80;99.90;;;;;;5092800;28;20111;-65
2022/11/16 06:43:21;;;;;;;15.50;12.80;;;10.80;99.90;;;;;;5092787;28;20114;-65
2022/11/16 06:45:51;;;;;;;16.13;13.13;;;10.90;99.90;;;;;;5092589;28;20044;-65
2022/11/16 06:48:18;;;;;;;17.30;12.65;;;10.90;99.90;;;;;;5092391;28;20500;-65
2022/11/16 06:50:44;;;;;;;16.90;13.07;;;10.70;99.90;;;;;;5092734;28;20115;-65
2022/11/16 06:53:09;;;;;;;17.48;13.55;;;10.90;99.90;;;;;;5092951;28;20119;-65
2022/11/16 06:55:35;;;;;;;14.93;12.95;;;10.90;99.90;;;;;;5092988;28;20032;-65
2022/11/16 06:58:00;;;;;;;17.70;13.70;;;10.90;99.90;;;;;;5096235;28;20381;-65
2022/11/16 07:00:26;;;;;;;14.77;11.90;;;10.90;99.90;;;;;;5096389;28;20073;-65
2022/11/16 07:02:52;;;;;;;13.15;10.82;;;10.80;99.90;;;;;;5096426;28;20040;-65
2022/11/16 07:05:18;;;;;;;14.88;11.23;;;10.70;99.90;;;;;;5096730;28;20047;-65
2022/11/16 07:07:44;;;;;;;12.52;11.10;;;10.90;99.90;;;;;;5116689;28;20134;-66
2022/11/16 07:10:11;;;;;;;13.30;10.88;;;10.70;99.90;;;;;;5116752;28;20043;-65
2022/11/16 07:12:37;;;;;;;11.05;9.52;;;10.90;99.90;;;;;;5116857;28;20046;-65
2022/11/16 07:15:03;;;;;;;11.50;9.25;;;10.70;99.90;;;;;;5116801;28;20036;-66
2022/11/16 07:17:28;;;;;;;12.10;10.18;;;10.80;99.90;;;;;;5116773;28;20042;-65
2022/11/16 07:19:54;;;;;;;12.30;9.98;;;10.70;99.90;;;;;;5116648;28;20040;-65
2022/11/16 07:22:20;;;;;;;12.10;10.27;;;10.90;99.90;;;;;;5098017;28;20100;-66
2022/11/16 07:24:45;;;;;;;14.18;11.85;;;11.00;99.90;;;;;;5116235;28;20043;-65
2022/11/16 07:27:11;;;;;;;12.30;10.43;;;11.00;99.90;;;;;;5116496;28;20071;-65
2022/11/16 07:29:36;;;;;;;12.00;10.68;;;10.80;99.90;;;;;;5116030;28;20046;-65
2022/11/16 07:32:02;;;;;;;14.32;11.35;;;10.90;99.90;;;;;;5116512;28;20043;-65
2022/11/16 07:34:28;;;;;;;15.00;12.07;;;10.80;99.90;;;;;;5116162;28;20556;-65
2022/11/16 07:36:53;;;;;;;14.88;11.15;;;10.70;99.90;;;;;;5116502;28;20035;-66
2022/11/16 07:39:20;;;;;;;15.35;12.75;;;11.00;99.90;;;;;;5116509;28;20031;-65
2022/11/16 07:41:46;;;;;;;15.98;12.57;;;10.90;99.90;;;;;;5116335;28;20039;-65
2022/11/16 07:44:12;;;;;;;12.75;11.02;;;10.70;99.90;;;;;;5116046;28;20045;-65
2022/11/16 07:46:37;;;;;;;14.48;10.60;;;10.70;99.90;;;;;;5116310;28;20161;-66
2022/11/16 07:49:03;;;;;;;15.95;11.38;;;10.80;99.90;;;;;;5116134;28;20038;-65
2022/11/16 07:51:31;;;;;;;12.93;10.13;;;10.70;99.90;;;;;;5116297;28;20468;-65
2022/11/16 07:53:57;;;;;;;11.68;9.93;;;10.80;99.90;;;;;;5116112;28;20043;-65
2022/11/16 07:56:23;;;;;;;9.90;8.68;;;11.00;99.90;;;;;;5116109;28;20039;-66
2022/11/16 07:58:49;;;;;;;11.30;10.05;;;10.90;99.90;;;;;;5116142;28;20431;-65
2022/11/16 08:01:16;;;;;;;9.98;8.65;;;10.80;99.90;;;;;;5116170;28;20035;-66
2022/11/16 08:03:43;;;;;;;10.48;8.63;;;10.90;99.90;;;;;;5116289;28;20437;-66
2022/11/16 08:06:26;;;;;;;13.05;9.77;;;11.00;99.90;;;;;;5115764;28;20067;-66
2022/11/16 08:08:52;;;;;;;10.90;9.48;;;10.80;99.90;;;;;;5097150;28;20435;-66
2022/11/16 08:11:17;;;;;;;13.40;10.82;;;10.80;99.90;;;;;;5115949;28;20040;-66
2022/11/16 08:13:43;;;;;;;12.45;11.05;;;11.00;99.90;;;;;;5115717;28;20089;-66
2022/11/16 08:16:12;;;;;;;12.57;10.77;;;10.70;99.90;;;;;;5097461;28;20401;-66
2022/11/16 08:18:38;;;;;;;12.63;10.93;;;10.90;99.90;;;;;;5115777;28;20032;-66
2022/11/16 08:21:05;;;;;;;14.15;11.55;;;10.90;99.90;;;;;;5115565;28;20032;-67
2022/11/16 08:23:32;;;;;;;15.30;12.23;;;11.00;99.90;;;;;;5115738;28;20035;-66
2022/11/16 08:26:14;;;;;;;13.80;11.88;;;10.90;99.90;;;;;;5115551;28;20032;-66
2022/11/16 08:28:40;;;;;;;12.63;10.40;;;10.90;99.90;;;;;;5115685;28;20035;-66
2022/11/16 08:31:12;;;;;;;13.00;10.90;;;10.90;99.90;;;;;;5096230;28;20048;-66
2022/11/16 08:33:38;;;;;;;13.93;11.15;;;10.90;99.90;;;;;;5115268;28;20050;-66
2022/11/16 08:36:06;;;;;;;16.20;12.20;;;10.70;99.90;;;;;;5115048;28;20044;-66
2022/11/16 08:38:31;;;;;;;13.52;11.05;;;10.90;99.90;;;;;;5115080;28;20070;-67
2022/11/16 08:40:57;;;;;;;15.57;12.38;;;10.90;99.90;;;;;;5113934;28;20124;-67
2022/11/16 08:43:23;;;;;;;14.82;11.55;;;10.90;99.90;;;;;;5114063;28;20544;-67
2022/11/16 08:45:50;;;;;;;17.50;11.38;;;10.90;99.90;;;;;;5113826;28;20168;-67
2022/11/16 08:48:15;;;;;;;14.23;11.30;;;10.90;99.90;;;;;;5113290;28;20043;-67
2022/11/16 08:50:41;;;;;;;15.05;11.70;;;10.80;99.90;;;;;;5113889;28;20512;-66
2022/11/16 08:53:07;;;;;;;13.88;12.25;;;10.70;99.90;;;;;;5113754;28;20427;-67
2022/11/16 08:55:32;;;;;;;18.42;12.02;;;10.70;99.90;;;;;;5113686;28;20032;-68
2022/11/16 08:57:58;;;;;;;17.58;12.90;;;11.00;99.90;;;;;;5113873;28;20476;-67
2022/11/16 09:00:24;;;;;;;15.82;12.82;;;10.90;99.90;;;;;;5113566;28;20603;-67
2022/11/16 09:02:50;;;;;;;14.80;12.13;;;10.90;99.90;;;;;;5113967;28;20031;-66
2022/11/16 09:05:16;;;;;;;13.00;11.63;;;10.70;99.90;;;;;;5113344;28;20036;-67
2022/11/16 09:07:44;;;;;;;14.63;11.95;;;10.90;99.90;;;;;;5113184;28;20054;-66
2022/11/16 09:10:10;;;;;;;16.30;12.38;;;10.70;99.90;;;;;;5113684;28;20042;-67
2022/11/16 09:12:36;;;;;;;16.77;12.63;;;10.80;99.90;;;;;;5113165;28;20427;-67
2022/11/16 09:15:03;;;;;;;16.63;13.20;;;10.70;99.90;;;;;;5094511;28;20035;-67
2022/11/16 09:17:29;;;;;;;18.88;13.43;;;10.90;99.90;;;;;;5112388;28;20512;-67
2022/11/16 09:19:55;;;;;;;15.18;12.73;;;10.70;99.90;;;;;;5112592;28;20032;-67
2022/11/16 09:22:20;;;;;;;13.77;12.30;;;11.00;99.90;;;;;;5112990;28;20481;-67
2022/11/16 09:24:46;;;;;;;16.02;14.15;;;10.90;99.90;;;;;;5094636;28;20050;-67
2022/11/16 09:27:12;;;;;;;17.55;12.95;;;11.00;99.90;;;;;;5113192;28;20047;-67
2022/11/16 09:29:37;;;;;;;16.95;13.18;;;10.70;99.90;;;;;;5113050;28;20394;-68
2022/11/16 09:32:03;;;;;;;16.98;13.48;;;11.00;99.90;;;;;;5112794;28;20043;-67
2022/11/16 09:34:29;;;;;;;14.40;12.65;;;10.80;99.90;;;;;;5112426;28;20043;-68
2022/11/16 09:36:54;;;;;;;18.08;13.63;;;11.10;99.90;;;;;;5112881;28;20032;-67
2022/11/16 09:39:20;;;;;;;20.75;13.27;;;11.10;99.90;;;;;;5112455;28;20397;-67
2022/11/16 09:42:31;;;;;;;16.05;12.30;;;10.90;99.90;;;;;;5111579;28;20035;-67
2022/11/16 09:45:05;;;;;;;14.07;12.25;;;11.00;99.90;;;;;;5007861;28;20041;-66
2022/11/16 09:47:49;;;;;;;14.52;10.98;;;11.10;99.90;;;;;;5009012;28;20104;-67
2022/11/16 09:50:36;;;;;;;13.98;9.93;;;11.00;99.90;;;;;;5009973;28;20393;-67
2022/11/16 09:53:27;;;;;;;14.52;10.60;;;10.90;99.90;;;;;;5009997;28;20100;-66
2022/11/16 09:55:58;;;;;;;12.52;10.13;;;11.10;99.90;;;;;;5010030;28;20042;-67
2022/11/16 09:58:48;;;;;;;13.00;9.90;;;11.20;99.90;;;;;;4994088;28;20046;-68
2022/11/16 10:01:27;;;;;;;14.60;10.82;;;11.20;99.90;;;;;;5010102;28;20431;-66
2022/11/16 10:03:58;;;;;;;11.90;10.40;;;11.10;99.90;;;;;;5010411;28;20104;-66
2022/11/16 10:06:44;;;;;;;13.07;10.75;;;11.20;99.90;;;;;;5010139;28;20108;-67
2022/11/16 10:09:11;;;;;;;12.27;10.98;;;11.30;99.90;;;;;;5010425;28;20221;-67
2022/11/16 10:12:05;;;;;;;12.45;11.00;;;11.20;99.90;;;;;;4993677;28;20046;-67
2022/11/16 10:14:56;;;;;;;13.10;11.02;;;11.30;99.90;;;;;;5009737;28;20050;-65
2022/11/16 10:17:30;;;;;;;12.82;10.90;;;11.50;99.90;;;;;;4992657;28;20048;-67
2022/11/16 10:20:15;;;;;;;13.85;11.70;;;11.30;99.90;;;;;;5035235;28;20109;-68
2022/11/16 10:22:57;;;;;;;14.68;10.57;;;11.30;99.90;;;;;;5112851;28;20067;-65
2022/11/16 10:25:30;;;;;;;13.25;11.27;;;11.20;99.90;;;;;;5112390;28;20106;-67
2022/11/16 10:28:15;;;;;;;12.88;10.73;;;11.30;99.90;;;;;;5112289;28;20125;-67
2022/11/16 10:31:07;;;;;;;12.15;10.27;;;11.30;99.90;;;;;;5114106;28;20040;-65
2022/11/16 10:33:35;;;;;;;11.75;10.52;;;11.40;99.90;;;;;;5115879;28;20036;-67
2022/11/16 10:36:13;;;;;;;16.75;11.43;;;11.40;99.90;;;;;;5116544;28;20405;-64
2022/11/16 10:38:39;;;;;;;13.95;11.40;;;11.60;99.90;;;;;;5116380;28;20114;-66
2022/11/16 10:41:19;;;;;;;14.32;12.05;;;11.40;99.90;;;;;;5116206;28;20106;-66
2022/11/16 10:43:46;;;;;;;16.95;12.40;;;11.60;99.90;;;;;;5114866;28;20036;-66
2022/11/16 10:46:47;;;;;;;14.30;11.38;;;11.50;99.90;;;;;;5114141;28;20043;-67
2022/11/16 10:49:20;;;;;;;16.83;11.60;;;11.40;99.90;;;;;;5012792;28;20054;-67
2022/11/16 10:51:45;;;;;;;15.60;12.48;;;11.70;99.90;;;;;;5013282;28;20081;-65
2022/11/16 10:54:15;;;;;;;17.13;11.75;;;11.70;99.90;;;;;;5012996;28;20049;-67
2022/11/16 10:56:44;;;;;;;16.77;11.30;;;11.80;99.90;;;;;;5013119;28;20072;-66
2022/11/16 10:59:18;;;;;;;15.95;12.35;;;11.90;99.90;;;;;;5013075;28;20038;-66
2022/11/16 11:01:49;;;;;;;15.98;11.35;;;11.90;99.90;;;;;;4996865;28;20092;-65
2022/11/16 11:04:27;;;;;;;13.68;11.13;;;11.80;99.90;;;;;;5013339;28;20049;-66
2022/11/16 11:06:55;;;;;;;15.25;11.05;;;11.90;99.90;;;;;;4996644;28;20421;-66
2022/11/16 11:09:29;;;;;;;12.73;11.40;;;12.10;99.90;;;;;;5012824;28;20512;-66
2022/11/16 11:15:14;;;;;;;15.85;9.65;;;12.00;99.90;;;;;;5010538;28;20508;-67
2022/11/16 11:17:46;;;;;;;13.73;9.55;;;12.20;99.90;;;;;;5011812;28;20042;-66
2022/11/16 11:20:14;;;;;;;13.80;7.97;;;12.40;99.90;;;;;;5012933;28;20053;-66
2022/11/16 11:22:57;;;;;;;15.20;9.20;;;12.50;99.90;;;;;;4995153;28;20537;-66
2022/11/16 11:25:40;;;;;;;12.05;8.32;;;12.50;99.90;;;;;;5027413;28;20049;-66
2022/11/16 11:28:42;;;;;;;12.32;7.97;;;12.40;99.90;;;;;;5074440;28;20038;-66
2022/11/16 11:31:24;;;;;;;11.02;7.18;;;12.60;99.90;;;;;;4992962;28;20038;-67
2022/11/16 11:33:56;;;;;;;14.13;7.68;;;12.80;99.90;;;;;;4992764;28;20089;-67
2022/11/16 11:36:31;;;;;;;14.82;6.63;;;12.80;99.90;;;;;;4992964;28;20054;-66
2022/11/16 11:39:02;;;;;;;12.50;6.68;;;12.90;99.90;;;;;;4992950;28;20050;-66
2022/11/16 11:41:32;;;;;;;9.98;6.88;;;12.90;99.90;;;;;;4992606;28;20502;-66
2022/11/16 11:44:02;;;;;;;11.95;6.78;;;13.00;99.90;;;;;;4990899;28;20069;-67
2022/11/16 11:46:29;;;;;;;9.80;5.88;;;13.00;99.90;;;;;;4990971;28;20050;-65
2022/11/16 11:49:25;;;;;;;9.43;5.93;;;13.10;99.90;;;;;;4991670;28;20558;-66
2022/11/16 11:51:54;;;;;;;13.48;6.70;;;13.10;99.90;;;;;;4992880;28;20046;-66
2022/11/16 11:54:26;;;;;;;9.73;7.30;;;13.10;99.90;;;;;;4992637;28;20046;-66
2022/11/16 11:56:52;;;;;;;13.90;6.75;;;12.90;99.90;;;;;;4992638;28;20543;-66
2022/11/16 11:59:22;;;;;;;10.75;6.72;;;13.00;99.90;;;;;;4992555;28;20053;-66
2022/11/16 12:02:09;;;;;;;12.95;7.00;;;13.00;99.90;;;;;;4992453;28;20045;-66
2022/11/16 12:05:09;;;;;;;12.15;6.82;;;12.90;99.90;;;;;;5015574;28;20049;-65
2022/11/16 12:07:46;;;;;;;16.15;6.28;;;12.80;99.90;;;;;;5104630;28;20048;-65
2022/11/16 12:10:44;;;;;;;15.98;6.38;;;12.80;99.90;;;;;;5114561;28;20109;-66
2022/11/16 12:13:37;;;;;;;10.45;5.10;;;12.80;99.90;;;;;;5113702;28;20036;-67
2022/11/16 12:16:21;;;;;;;15.10;4.82;;;12.90;99.90;;;;;;5114835;28;20431;-67
2022/11/16 12:18:56;;;;;;;8.02;3.80;;;13.00;99.90;;;;;;5114187;28;20040;-67
2022/11/16 12:21:46;;;;;;;13.23;5.07;;;13.20;99.90;;;;;;5114148;28;20047;-66
2022/11/16 12:24:35;;;;;;;9.88;3.70;;;13.20;99.90;;;;;;5114211;28;20039;-66
2022/11/16 12:27:17;;;;;;;7.20;2.92;;;13.30;99.90;;;;;;5113921;28;20387;-66
2022/11/16 12:30:08;;;;;;;18.35;3.15;;;13.40;99.90;;;;;;5114152;28;20047;-66
2022/11/16 12:33:03;;;;;;;4.80;2.15;;;13.40;99.90;;;;;;5113994;28;20039;-65
2022/11/16 12:35:38;;;;;;;10.63;2.70;;;13.30;99.90;;;;;;5113589;28;20405;-64
2022/11/16 12:38:26;;;;;;;5.35;2.28;;;13.30;99.90;;;;;;5095366;28;20143;-66
2022/11/16 12:41:33;;;;;;;6.38;2.72;;;13.30;99.90;;;;;;5113873;28;20040;-65
2022/11/16 12:44:01;;;;;;;7.50;2.28;;;13.20;99.90;;;;;;5113889;28;20050;-64
2022/11/16 12:47:04;;;;;;;9.50;2.03;;;13.40;99.90;;;;;;5113983;28;20035;-64
2022/11/16 12:49:55;;;;;;;4.47;2.17;;;13.20;99.90;;;;;;5113787;28;20085;-64
2022/11/16 12:52:52;;;;;;;12.98;2.75;;;13.10;99.90;;;;;;5113455;28;20100;-64
2022/11/16 12:55:37;;;;;;;10.25;2.25;;;13.00;99.90;;;;;;5112367;28;20434;-63
2022/11/16 12:58:31;;;;;;;6.30;2.33;;;12.90;99.90;;;;;;5113439;28;20114;-64
2022/11/16 13:01:19;;;;;;;10.65;2.60;;;12.90;99.90;;;;;;5113414;28;20501;-64
2022/11/16 13:03:57;;;;;;;7.85;2.35;;;12.90;99.90;;;;;;5113706;28;20039;-64
2022/11/16 13:06:32;;;;;;;5.47;2.25;;;12.80;99.90;;;;;;5113326;28;20144;-64
2022/11/16 13:09:06;;;;;;;6.75;2.60;;;12.80;99.90;;;;;;5113254;28;20071;-64
2022/11/16 13:11:35;;;;;;;10.25;2.20;;;12.70;99.90;;;;;;5113520;28;20144;-64
2022/11/16 13:14:10;;;;;;;10.40;2.33;;;12.70;99.90;;;;;;5113216;28;20047;-64
2022/11/16 13:16:36;;;;;;;9.48;2.70;;;12.80;99.90;;;;;;5113396;28;20032;-64
2022/11/16 13:19:05;;;;;;;7.68;2.58;;;12.80;99.90;;;;;;5113229;28;20050;-64
2022/11/16 13:21:55;;;;;;;9.10;2.30;;;12.90;99.90;;;;;;5113209;28;20200;-64
2022/11/16 13:24:51;;;;;;;10.27;2.10;;;13.00;99.90;;;;;;5113319;28;20040;-63
2022/11/16 13:27:36;;;;;;;5.05;1.58;;;13.00;99.90;;;;;;5113129;28;20039;-64
2022/11/16 13:30:26;;;;;;;6.93;2.08;;;13.00;99.90;;;;;;5113098;28;20130;-65
2022/11/16 13:33:13;;;;;;;4.70;1.60;;;12.90;99.90;;;;;;5112983;28;20055;-64
2022/11/16 13:35:39;;;;;;;7.88;2.20;;;12.90;99.90;;;;;;5112901;28;20035;-64
2022/11/16 13:38:11;;;;;;;7.93;2.20;;;12.80;99.90;;;;;;5112568;28;20088;-64